createdAt,value
2022-11-28T00:00:23.617Z,42.00
2022-11-28T00:03:17.045Z,38.57
2022-11-28T00:05:50.664Z,37.43
2022-11-28T00:08:24.279Z,38.03
2022-11-28T00:10:57.694Z,45.83
2022-11-28T00:13:31.747Z,38.37
2022-11-28T00:16:08.158Z,39.80
2022-11-28T00:18:41.595Z,41.70
2022-11-28T00:21:16.213Z,37.37
2022-11-28T00:23:50.811Z,38.97
2022-11-28T00:26:26.023Z,40.53
2022-11-28T00:29:00.677Z,38.27
2022-11-28T00:31:43.026Z,38.00
2022-11-28T00:34:17.871Z,39.63
2022-11-28T00:36:51.689Z,34.70
2022-11-28T00:39:25.375Z,36.10
2022-11-28T00:41:58.520Z,35.60
2022-11-28T00:44:31.787Z,37.00
2022-11-28T00:47:05.158Z,37.17
2022-11-28T00:49:40.080Z,37.57
2022-11-28T00:52:13.937Z,34.33
2022-11-28T00:54:47.485Z,36.20
2022-11-28T00:57:21.093Z,35.50
2022-11-28T00:59:54.683Z,36.20
2022-11-28T01:02:28.033Z,40.53
2022-11-28T01:05:01.881Z,40.57
2022-11-28T01:07:36.146Z,39.00
2022-11-28T01:10:12.566Z,39.43
2022-11-28T01:12:46.317Z,43.90
2022-11-28T01:15:19.761Z,39.30
2022-11-28T01:17:52.687Z,41.07
2022-11-28T01:20:26.344Z,38.53
2022-11-28T01:22:59.779Z,38.90
2022-11-28T01:25:33.804Z,40.77
2022-11-28T01:28:07.801Z,39.53
2022-11-28T01:30:42.244Z,39.80
2022-11-28T01:33:15.589Z,39.40
2022-11-28T01:35:58.545Z,39.53
2022-11-28T01:38:31.986Z,40.13
2022-11-28T01:41:05.462Z,41.70
2022-11-28T01:43:58.237Z,38.13
2022-11-28T01:49:08.891Z,38.80
2022-11-28T01:51:43.792Z,38.03
2022-11-28T01:54:20.120Z,42.33
2022-11-28T01:56:57.999Z,39.60
2022-11-28T01:59:35.799Z,38.87
2022-11-28T02:02:15.166Z,38.53
2022-11-28T02:04:49.704Z,39.03
2022-11-28T02:07:23.153Z,39.37
2022-11-28T02:09:57.160Z,42.23
2022-11-28T02:12:46.134Z,39.77
2022-11-28T02:15:35.282Z,41.60
2022-11-28T02:18:24.247Z,38.73
2022-11-28T02:21:23.269Z,38.33
2022-11-28T02:24:22.233Z,39.17
2022-11-28T02:27:18.713Z,38.97
2022-11-28T02:30:08.095Z,42.07
2022-11-28T02:33:03.619Z,39.30
2022-11-28T02:35:45.239Z,37.23
2022-11-28T02:38:24.903Z,35.60
2022-11-28T02:41:04.320Z,37.90
2022-11-28T02:43:45.904Z,34.63
2022-11-28T02:46:27.476Z,35.33
2022-11-28T02:49:05.652Z,35.83
2022-11-28T02:51:43.714Z,37.40
2022-11-28T02:54:19.995Z,36.30
2022-11-28T02:56:54.422Z,38.07
2022-11-28T02:59:47.233Z,34.23
2022-11-28T03:05:03.653Z,34.40
2022-11-28T03:07:52.240Z,34.77
2022-11-28T03:10:31.101Z,33.10
2022-11-28T03:13:14.751Z,33.17
2022-11-28T03:15:58.215Z,33.53
2022-11-28T03:18:37.721Z,32.90
2022-11-28T03:21:19.922Z,34.67
2022-11-28T03:26:33.728Z,35.10
2022-11-28T03:29:15.919Z,34.57
2022-11-28T03:31:54.534Z,34.92
2022-11-28T03:34:32.758Z,34.93
2022-11-28T03:37:10.533Z,34.27
2022-11-28T03:39:50.138Z,34.43
2022-11-28T03:42:27.011Z,36.37
2022-11-28T03:45:08.394Z,35.37
2022-11-28T03:47:47.522Z,32.53
2022-11-28T03:50:26.873Z,35.10
2022-11-28T03:53:04.350Z,35.07
2022-11-28T03:55:42.877Z,37.43
2022-11-28T03:58:25.469Z,38.20
2022-11-28T04:01:10.239Z,36.43
2022-11-28T04:03:53.763Z,36.10
2022-11-28T04:06:31.489Z,39.43
2022-11-28T04:09:14.401Z,37.40
2022-11-28T04:11:53.316Z,38.70
2022-11-28T04:14:33.351Z,41.07
2022-11-28T04:17:11.806Z,38.83
2022-11-28T04:19:51.346Z,41.00
2022-11-28T04:22:30.610Z,41.57
2022-11-28T04:25:08.734Z,38.00
2022-11-28T04:27:47.519Z,42.03
2022-11-28T04:30:21.486Z,42.67
2022-11-28T04:33:02.234Z,46.03
2022-11-28T04:35:39.231Z,45.10
2022-11-28T04:38:14.847Z,42.70
2022-11-28T04:40:53.582Z,52.13
2022-11-28T04:43:31.901Z,45.10
2022-11-28T04:46:11.121Z,43.97
2022-11-28T04:48:45.570Z,45.60
2022-11-28T04:51:23.545Z,42.93
2022-11-28T04:54:07.997Z,47.20
2022-11-28T04:56:45.452Z,46.67
2022-11-28T04:59:20.042Z,51.50
2022-11-28T05:01:54.023Z,48.63
2022-11-28T05:04:27.518Z,44.93
2022-11-28T05:07:06.870Z,52.53
2022-11-28T05:09:40.739Z,47.30
2022-11-28T05:12:13.587Z,48.73
2022-11-28T05:14:47.238Z,50.37
2022-11-28T05:17:20.881Z,48.47
2022-11-28T05:19:54.124Z,50.03
2022-11-28T05:22:27.541Z,47.17
2022-11-28T05:25:01.082Z,48.83
2022-11-28T05:27:34.619Z,50.17
2022-11-28T05:30:13.471Z,45.97
2022-11-28T05:32:46.938Z,50.07
2022-11-28T05:35:20.740Z,48.13
2022-11-28T05:37:53.821Z,48.07
2022-11-28T05:40:26.976Z,47.93
2022-11-28T05:43:00.401Z,53.43
2022-11-28T05:45:34.339Z,47.27
2022-11-28T05:48:08.405Z,47.67
2022-11-28T05:50:44.159Z,46.53
2022-11-28T05:53:18.399Z,46.05
2022-11-28T05:55:51.992Z,46.70
2022-11-28T05:58:25.190Z,45.23
2022-11-28T06:00:58.782Z,42.13
2022-11-28T06:03:32.175Z,43.40
2022-11-28T06:06:06.049Z,44.53
2022-11-28T06:08:39.441Z,43.40
2022-11-28T06:11:15.071Z,45.67
2022-11-28T06:13:49.443Z,40.30
2022-11-28T06:16:24.660Z,42.67
2022-11-28T06:18:59.673Z,43.13
2022-11-28T06:21:33.811Z,42.47
2022-11-28T06:24:08.885Z,40.83
2022-11-28T06:26:42.558Z,42.00
2022-11-28T06:29:15.819Z,45.37
2022-11-28T06:31:49.218Z,41.67
2022-11-28T06:34:23.147Z,40.17
2022-11-28T06:36:56.953Z,38.53
2022-11-28T06:39:30.551Z,41.63
2022-11-28T06:42:04.366Z,38.97
2022-11-28T06:44:37.799Z,40.27
2022-11-28T06:47:11.496Z,35.73
2022-11-28T06:49:45.203Z,41.57
2022-11-28T06:52:18.784Z,38.47
2022-11-28T06:54:52.352Z,38.20
2022-11-28T06:57:25.217Z,35.93
2022-11-28T06:59:58.781Z,33.60
2022-11-28T07:02:32.240Z,35.07
2022-11-28T07:05:06.340Z,34.17
2022-11-28T07:07:53.059Z,32.63
2022-11-28T07:10:30.392Z,32.67
2022-11-28T07:13:05.687Z,33.70
2022-11-28T07:15:39.577Z,31.70
2022-11-28T07:18:12.876Z,29.43
2022-11-28T07:20:46.817Z,34.87
2022-11-28T07:23:20.670Z,31.87
2022-11-28T07:25:58.910Z,29.17
2022-11-28T07:28:32.850Z,34.37
2022-11-28T07:31:08.450Z,27.73
2022-11-28T07:33:43.195Z,30.27
2022-11-28T07:36:19.156Z,29.00
2022-11-28T07:38:54.058Z,28.90
2022-11-28T07:41:28.876Z,28.73
2022-11-28T07:44:05.854Z,25.23
2022-11-28T07:46:40.930Z,28.03
2022-11-28T07:49:15.087Z,28.60
2022-11-28T07:51:48.681Z,29.67
2022-11-28T07:54:22.871Z,27.13
2022-11-28T07:57:11.612Z,29.27
2022-11-28T07:59:46.302Z,30.90
2022-11-28T08:02:19.764Z,29.63
2022-11-28T08:04:55.340Z,26.87
2022-11-28T08:07:29.122Z,28.87
2022-11-28T08:10:02.642Z,28.07
2022-11-28T08:12:36.446Z,27.87
2022-11-28T08:15:12.283Z,26.20
2022-11-28T08:17:45.816Z,26.53
2022-11-28T08:20:19.941Z,25.53
2022-11-28T08:22:53.769Z,28.60
2022-11-28T08:25:28.021Z,25.40
2022-11-28T08:28:01.456Z,28.80
2022-11-28T08:30:35.018Z,28.43
2022-11-28T08:33:08.357Z,28.63
2022-11-28T08:35:44.382Z,28.60
2022-11-28T08:38:17.831Z,28.97
2022-11-28T08:40:51.055Z,24.43
2022-11-28T08:43:24.845Z,25.13
2022-11-28T08:45:58.392Z,27.17
2022-11-28T08:48:31.818Z,27.20
2022-11-28T08:51:05.603Z,28.23
2022-11-28T08:53:39.912Z,28.40
2022-11-28T08:56:14.344Z,27.60
2022-11-28T08:58:47.593Z,27.57
2022-11-28T09:01:23.764Z,30.30
2022-11-28T09:03:58.465Z,25.07
2022-11-28T09:06:31.878Z,26.43
2022-11-28T09:09:05.458Z,29.37
2022-11-28T09:11:39.290Z,25.93
2022-11-28T09:14:13.206Z,30.10
2022-11-28T09:16:46.715Z,28.97
2022-11-28T09:19:20.119Z,26.97
2022-11-28T09:21:57.667Z,25.70
2022-11-28T09:24:31.972Z,28.30
2022-11-28T09:27:06.209Z,25.53
2022-11-28T09:29:39.581Z,25.90
2022-11-28T09:32:13.281Z,26.70
2022-11-28T09:34:46.628Z,29.80
2022-11-28T09:37:20.379Z,26.77
2022-11-28T09:40:12.768Z,25.90
2022-11-28T09:42:48.054Z,26.97
2022-11-28T09:45:24.774Z,27.63
2022-11-28T09:48:03.085Z,27.50
2022-11-28T09:50:40.311Z,32.07
2022-11-28T09:53:23.150Z,26.93
2022-11-28T09:56:01.246Z,26.80
2022-11-28T09:58:43.059Z,26.07
2022-11-28T10:01:26.277Z,28.25
2022-11-28T10:04:05.240Z,27.10
2022-11-28T10:06:48.205Z,28.33
2022-11-28T10:09:35.526Z,26.00
2022-11-28T10:12:28.450Z,29.00
2022-11-28T10:15:26.835Z,29.40
2022-11-28T10:18:19.604Z,26.50
2022-11-28T10:20:58.285Z,27.03
2022-11-28T10:23:37.040Z,27.20
2022-11-28T10:26:18.021Z,27.17
2022-11-28T10:28:55.073Z,26.33
2022-11-28T10:31:35.027Z,29.87
2022-11-28T10:34:16.175Z,25.67
2022-11-28T10:36:58.899Z,27.57
2022-11-28T10:39:32.837Z,29.37
2022-11-28T10:42:14.433Z,25.07
2022-11-28T10:45:13.630Z,28.55
2022-11-28T10:48:37.133Z,25.07
2022-11-28T10:51:09.183Z,25.70
2022-11-28T10:56:31.305Z,27.30
2022-11-28T10:59:16.169Z,26.30
2022-11-28T11:01:51.451Z,26.97
2022-11-28T11:04:28.705Z,24.00
2022-11-28T11:07:21.798Z,27.23
2022-11-28T11:09:58.244Z,24.87
2022-11-28T11:12:36.148Z,29.00
2022-11-28T11:15:23.641Z,26.80
2022-11-28T11:17:58.077Z,26.47
2022-11-28T11:20:42.100Z,27.37
2022-11-28T11:23:20.481Z,27.23
2022-11-28T11:25:56.363Z,25.43
2022-11-28T11:28:42.277Z,26.83
2022-11-28T11:31:28.445Z,30.23
2022-11-28T11:34:09.221Z,27.03
2022-11-28T11:36:42.814Z,26.90
2022-11-28T11:39:25.815Z,26.47
2022-11-28T11:44:59.658Z,24.90
2022-11-28T11:47:46.570Z,23.73
2022-11-28T11:50:23.897Z,22.33
2022-11-28T11:53:09.046Z,25.07
2022-11-28T11:55:48.948Z,23.53
2022-11-28T11:58:25.717Z,23.07
2022-11-28T12:01:01.262Z,21.43
2022-11-28T12:03:38.496Z,21.90
2022-11-28T12:06:19.246Z,22.67
2022-11-28T12:08:55.881Z,24.07
2022-11-28T12:11:33.007Z,26.17
2022-11-28T12:14:26.051Z,22.83
2022-11-28T12:17:40.433Z,22.00
2022-11-28T12:20:28.749Z,23.40
2022-11-28T12:26:18.026Z,22.10
2022-11-28T12:29:06.317Z,22.70
2022-11-28T12:31:50.128Z,24.17
2022-11-28T12:34:37.484Z,22.13
2022-11-28T12:37:19.799Z,22.97
2022-11-28T12:40:01.636Z,22.20
2022-11-28T12:42:47.046Z,21.75
2022-11-28T12:45:38.529Z,21.57
2022-11-28T12:48:32.862Z,21.57
2022-11-28T12:51:16.241Z,23.97
2022-11-28T12:54:07.417Z,20.87
2022-11-28T12:56:50.824Z,21.33
2022-11-28T12:59:33.698Z,21.47
2022-11-28T13:02:26.888Z,23.83
2022-11-28T13:05:17.148Z,21.40
2022-11-28T13:08:15.118Z,24.23
2022-11-28T13:10:57.524Z,23.20
2022-11-28T13:13:36.652Z,22.23
2022-11-28T13:16:25.108Z,24.60
2022-11-28T13:19:06.591Z,24.63
2022-11-28T13:21:47.782Z,23.90
2022-11-28T13:24:29.062Z,25.47
2022-11-28T13:27:11.347Z,23.67
2022-11-28T13:29:52.524Z,21.87
2022-11-28T13:32:32.562Z,23.07
2022-11-28T13:35:07.274Z,24.13
2022-11-28T13:40:45.375Z,23.97
2022-11-28T13:43:25.945Z,25.30
2022-11-28T13:45:59.998Z,25.70
2022-11-28T13:49:14.601Z,35.43
2022-11-28T13:51:49.535Z,27.77
2022-11-28T13:54:48.962Z,25.13
2022-11-28T13:57:29.088Z,24.33
2022-11-28T14:00:22.616Z,23.47
2022-11-28T14:03:00.390Z,25.00
2022-11-28T14:05:37.397Z,24.17
2022-11-28T14:08:27.273Z,25.10
2022-11-28T14:11:16.349Z,25.10
2022-11-28T14:14:05.691Z,27.27
2022-11-28T14:16:54.706Z,26.53
2022-11-28T14:19:41.770Z,25.60
2022-11-28T14:22:28.885Z,24.00
2022-11-28T14:25:10.882Z,31.00
2022-11-28T14:27:55.126Z,29.02
2022-11-28T14:30:35.470Z,26.20
2022-11-28T14:33:17.508Z,23.87
2022-11-28T14:36:23.583Z,25.87
2022-11-28T14:39:34.140Z,24.00
2022-11-28T14:42:59.787Z,25.87
2022-11-28T14:45:48.167Z,25.47
2022-11-28T14:48:34.069Z,25.23
2022-11-28T14:51:07.955Z,26.63
2022-11-28T14:53:46.150Z,25.03
2022-11-28T14:56:32.109Z,27.50
2022-11-28T14:59:06.434Z,25.90
2022-11-28T15:01:52.721Z,28.17
2022-11-28T15:04:46.881Z,29.67
2022-11-28T15:07:30.635Z,30.17
2022-11-28T15:10:16.355Z,31.00
2022-11-28T15:13:03.392Z,27.17
2022-11-28T15:15:37.194Z,28.33
2022-11-28T15:18:13.846Z,24.83
2022-11-28T15:20:54.110Z,29.93
2022-11-28T15:23:31.083Z,26.00
2022-11-28T15:26:05.187Z,28.77
2022-11-28T15:28:39.334Z,29.10
2022-11-28T15:31:23.449Z,27.57
2022-11-28T15:33:57.376Z,26.27
2022-11-28T15:36:31.843Z,26.77
2022-11-28T15:39:05.468Z,33.30
2022-11-28T15:41:38.804Z,29.60
2022-11-28T15:44:18.695Z,32.53
2022-11-28T15:46:52.580Z,28.70
2022-11-28T15:49:31.823Z,27.10
2022-11-28T15:52:06.647Z,27.63
2022-11-28T15:54:44.090Z,30.03
2022-11-28T15:57:25.333Z,30.20
2022-11-28T15:59:59.051Z,32.40
2022-11-28T16:02:38.975Z,33.40
2022-11-28T16:05:21.144Z,40.30
2022-11-28T16:07:55.340Z,36.40
2022-11-28T16:10:34.204Z,35.90
2022-11-28T16:16:32.735Z,30.90
2022-11-28T16:19:12.553Z,29.60
2022-11-28T16:22:02.165Z,29.83
2022-11-28T16:25:01.677Z,30.37
2022-11-28T16:27:50.852Z,33.87
2022-11-28T16:30:46.797Z,36.50
2022-11-28T16:33:48.480Z,32.03
2022-11-28T16:36:49.367Z,28.13
2022-11-28T17:14:49.229Z,36.53
2022-11-28T17:21:03.634Z,36.87
2022-11-28T17:23:43.998Z,35.33
2022-11-28T17:26:42.566Z,36.43
2022-11-28T17:29:43.503Z,33.33
2022-11-28T17:32:25.565Z,35.30
2022-11-28T17:35:11.456Z,37.20
2022-11-28T17:38:00.135Z,35.97
2022-11-28T17:40:37.311Z,39.50
2022-11-28T17:46:50.348Z,37.97
2022-11-28T17:49:28.242Z,37.67
2022-11-28T17:52:08.207Z,36.73
2022-11-28T17:54:43.722Z,39.80
2022-11-28T17:57:22.822Z,40.27
2022-11-28T18:04:28.224Z,37.47
2022-11-28T18:07:05.089Z,38.70
2022-11-28T18:09:42.672Z,37.57
2022-11-28T18:12:22.269Z,36.73
2022-11-28T18:15:01.464Z,37.83
2022-11-28T18:18:42.930Z,39.30
2022-11-28T18:26:31.766Z,36.77
2022-11-28T18:29:33.999Z,33.37
2022-11-28T18:32:08.283Z,35.30
2022-11-28T18:34:41.650Z,40.67
2022-11-28T18:38:04.925Z,33.30
2022-11-28T18:40:39.832Z,33.73
2022-11-28T18:43:13.176Z,37.93
2022-11-28T18:45:47.770Z,34.37
2022-11-28T18:48:23.169Z,34.17
2022-11-28T18:50:56.736Z,37.10
2022-11-28T18:53:30.217Z,33.13
2022-11-28T18:56:11.441Z,35.73
2022-11-28T18:58:46.491Z,32.43
2022-11-28T19:01:22.610Z,34.80
2022-11-28T19:03:58.471Z,33.80
2022-11-28T19:06:32.517Z,33.67
2022-11-28T19:09:10.673Z,31.27
2022-11-28T19:11:46.588Z,34.70
2022-11-28T19:14:21.715Z,34.60
2022-11-28T19:17:00.164Z,36.13
2022-11-28T19:19:40.285Z,34.13
2022-11-28T19:22:14.013Z,33.67
2022-11-28T19:24:47.309Z,35.00
2022-11-28T19:27:22.809Z,34.23
2022-11-28T19:29:56.140Z,34.43
2022-11-28T19:32:29.540Z,31.63
2022-11-28T19:35:04.851Z,33.70
2022-11-28T19:37:38.335Z,33.77
2022-11-28T19:40:15.992Z,33.37
2022-11-28T19:42:49.409Z,31.57
2022-11-28T19:45:22.767Z,34.43
2022-11-28T19:47:58.600Z,34.20
2022-11-28T19:50:32.242Z,33.83
2022-11-28T19:53:05.646Z,33.20
2022-11-28T19:56:01.777Z,31.07
2022-11-28T19:58:39.823Z,30.70
2022-11-28T20:01:16.999Z,30.53
2022-11-28T20:03:52.636Z,33.43
2022-11-28T20:06:34.104Z,31.50
2022-11-28T20:09:12.740Z,30.93
2022-11-28T20:12:28.420Z,33.67
2022-11-28T20:15:06.124Z,29.37
2022-11-28T20:17:39.394Z,35.50
2022-11-28T20:20:14.081Z,32.90
2022-11-28T20:22:51.467Z,30.80
2022-11-28T20:25:26.313Z,30.60
2022-11-28T20:28:04.564Z,33.83
2022-11-28T20:30:41.336Z,30.43
2022-11-28T20:33:35.627Z,33.90
2022-11-28T20:36:16.570Z,30.63
2022-11-28T20:38:50.866Z,31.70
2022-11-28T20:41:27.452Z,29.97
2022-11-28T20:44:02.076Z,31.53
2022-11-28T20:46:36.762Z,32.33
2022-11-28T20:49:11.749Z,28.10
2022-11-28T20:51:45.143Z,29.63
2022-11-28T20:54:19.055Z,28.90
2022-11-28T20:57:20.342Z,30.80
2022-11-28T20:59:49.348Z,31.30
2022-11-28T21:02:24.435Z,29.10
2022-11-28T21:05:02.259Z,28.30
2022-11-28T21:07:36.470Z,27.70
2022-11-28T21:10:11.259Z,31.57
2022-11-28T21:12:44.814Z,27.43
2022-11-28T21:15:17.965Z,30.73
2022-11-28T21:17:51.184Z,29.70
2022-11-28T21:20:24.100Z,34.20
2022-11-28T21:22:57.048Z,31.97
2022-11-28T21:25:29.988Z,29.73
2022-11-28T21:28:02.946Z,30.43
2022-11-28T21:30:40.445Z,29.43
2022-11-28T21:33:14.856Z,33.67
2022-11-28T21:35:47.798Z,32.03
2022-11-28T21:38:20.968Z,31.27
2022-11-28T21:40:59.645Z,28.17
2022-11-28T21:43:33.249Z,33.50
2022-11-28T21:46:08.554Z,30.53
2022-11-28T21:48:42.619Z,26.27
2022-11-28T21:51:22.130Z,27.33
2022-11-28T21:53:57.811Z,29.00
2022-11-28T21:56:30.995Z,25.63
2022-11-28T21:59:05.036Z,27.20
2022-11-28T22:01:38.453Z,30.53
2022-11-28T22:04:14.072Z,30.60
2022-11-28T22:06:46.988Z,28.10
2022-11-28T22:09:19.965Z,29.47
2022-11-28T22:11:53.319Z,28.53
2022-11-28T22:14:26.644Z,28.70
2022-11-28T22:17:00.891Z,29.63
2022-11-28T22:19:36.460Z,29.63
2022-11-28T22:22:09.610Z,27.90
2022-11-28T22:24:47.464Z,28.50
2022-11-28T22:27:21.737Z,30.13
2022-11-28T22:29:55.258Z,26.87
2022-11-28T22:32:28.106Z,27.77
2022-11-28T22:35:02.778Z,27.13
2022-11-28T22:37:35.828Z,26.60
2022-11-28T22:40:11.473Z,27.90
2022-11-28T22:42:44.508Z,26.33
2022-11-28T22:45:17.701Z,26.30
2022-11-28T22:47:50.477Z,25.17
2022-11-28T22:50:23.613Z,26.10
2022-11-28T22:52:57.449Z,25.63
2022-11-28T22:55:30.252Z,26.47
2022-11-28T22:58:03.958Z,27.13
2022-11-28T23:00:37.276Z,27.93
2022-11-28T23:03:10.443Z,25.57
2022-11-28T23:05:48.974Z,26.00
2022-11-28T23:08:24.271Z,24.23
2022-11-28T23:10:57.316Z,23.97
2022-11-28T23:13:32.812Z,27.63
2022-11-28T23:16:41.297Z,24.83
2022-11-28T23:19:16.865Z,26.17
2022-11-28T23:21:52.979Z,24.73
2022-11-28T23:24:26.668Z,24.80
2022-11-28T23:27:00.044Z,25.93
2022-11-28T23:29:33.503Z,22.90
2022-11-28T23:32:06.854Z,23.47
2022-11-28T23:34:40.440Z,25.07
2022-11-28T23:37:13.716Z,26.27
2022-11-28T23:39:46.755Z,23.20
2022-11-28T23:42:19.996Z,25.30
2022-11-28T23:44:53.035Z,22.03
2022-11-28T23:47:25.991Z,23.67
2022-11-28T23:50:01.159Z,25.10
2022-11-28T23:52:34.135Z,23.80
2022-11-28T23:55:08.294Z,24.70
2022-11-28T23:57:41.146Z,23.27
